tnt.it alexa rank chart, tnt.it alexa rank daily changes

tnt.it alexa rank chart, tnt.it alexa rank daily changes

tnt.it
Actual rank:
53 260

RANK HISTORY

Date Rank Diff
2018/05/25 53 260 -5 420
2018/05/24 58 680 +14 323
2018/05/23 44 357 -140 799
2018/05/22 185 156 +15 040
2018/05/21 170 116 +118 260
2018/05/20 51 856 +26 201
2018/05/19 25 655 -7 405
2018/05/18 33 060 +2 703
2018/05/17 30 357 -2 157
2018/05/16 32 514 -87 975
2018/05/15 120 489 -55 282
2018/05/14 175 771 +125 524
2018/05/13 50 247 +10 585
2018/05/12 39 662 +10 302
2018/05/11 29 360 -11 526
2018/05/10 40 886 +5 820
2018/05/09 35 066 -335 727
2018/05/08 370 793 +197 272
2018/05/07 173 521 +137 949
2018/05/06 35 572 +960
2018/05/05 34 612 -1 154
2018/05/04 35 766 -294 314
2018/05/03 330 080 +283 720
2018/05/02 46 360 -142 044
2018/05/01 188 404 +99 954
2018/04/30 88 450 +54 400
2018/04/29 34 050 +4 656
2018/04/28 29 394 -59 113
2018/04/27 88 507 +45 188
2018/04/26 43 319 +2 099
2018/04/25 41 220 -180 173
2018/04/24 221 393 +132 886
2018/04/23 88 507 +41 026
2018/04/22 47 481 -2 505
2018/04/21 49 986 +12 722
2018/04/20 37 264 -3 368
2018/04/19 40 632 +2 814
2018/04/18 37 818 -195 622
2018/04/17 233 440 -5 619
2018/04/16 239 059 +199 518
2018/04/15 39 541 +10 942
2018/04/14 28 599 +6 610
2018/04/13 21 989 -6 286
2018/04/12 28 275 -2 494
2018/04/11 30 769 -112 698
2018/04/10 143 467 +71 987
2018/04/09 71 480 +34 345
2018/04/08 37 135 -11 453
2018/04/07 48 588 +1 588
2018/04/06 47 000 +13 586
2018/04/05 33 414 -101 483
2018/04/04 134 897 +35 277
2018/04/03 99 620 +34 356
2018/04/02 65 264 +41 068
2018/04/01 24 196 -14 612
2018/03/31 38 808 +3 347
2018/03/30 35 461 -11 072
2018/03/29 46 533 +14 711
2018/03/28 31 822 -26 152
2018/03/27 57 974

WIDGET FOR YOUR SITE

DOMAINS WITH THE NEAREST RANK

Domain Rank
webnode.it 53 255
fuze.me 53 256
otlob.com 53 257
enneagraminstitute.com 53 258
avtozvuk.ua 53 259
tnt.it 53 260
mpf.mp.br 53 261
vsegda-plys.ru 53 262
hzz.hr 53 263
wattan.tv 53 264
livrozilla.com 53 265

DOMAINS WITH THE NEAREST RANK BY TLD .it

Domain Rank
infinitytv.it 53 120
siae.it 53 189
canon.it 53 200
bancaditalia.it 53 223
webnode.it 53 255
tnt.it 53 260
univpm.it 53 890
unical.it 53 910
ninjamarketing.it 54 000
unipa.it 54 007
1and1.it 54 230